S 386 Casilo — OZZP — position and weather

sailwx.info

Track history (hours):
 
Tides and Currents Weather Stations Pressure Air Temp Water Temp Dewpoint Dewpoint Depression Visibility Wind Speed Wind Dir Waves Ship Positions

S 386 Casilo

Last reported at 2017-Mar-28 20:21 UTC. Time now 2017-Mar-29 21:17 UTC.
Position N 57°43' E 008°24'.

Length 24 m.

Type: Fishing. MMSI: 219948000.

Date/timePositionNaut miles runAvg speedWind from/ knotsBaromVisibWave heightAir tempDewpointWater temp
2017-Mar-28 20:21N 57°43' E 008°24'2 2.7
2017-Mar-28 19:33N 57°44' E 008°27'9 8.6
2017-Mar-28 18:29N 57°47' E 008°43'6 5.9
2017-Mar-28 17:25N 57°51' E 008°53'12 2.1
2017-Mar-28 11:27N 57°45' E 008°32'3 2.2
2017-Mar-28 10:03N 57°44' E 008°27'27 1.3
2017-Mar-27 14:07N 57°34' E 009°14'5 8.4
2017-Mar-27 13:30N 57°35' E 009°24'8 8.1
2017-Mar-27 12:31N 57°35' E 009°38'8 7.8
2017-Mar-27 11:33N 57°36' E 009°52'8 2.6
2017-Mar-27 08:33N 57°43' E 009°59'25 2.4
2017-Mar-26 22:05N 58°07' E 009°42'1 2.1
2017-Mar-26 21:33N 58°06' E 009°40'2 2.1
2017-Mar-26 20:28N 58°05' E 009°37'2 2.1
2017-Mar-26 19:32N 58°04' E 009°33'6 2.1
2017-Mar-26 16:32N 58°01' E 009°23'2 2.1
2017-Mar-26 15:33N 57°60' E 009°20'2 1.7
2017-Mar-26 14:33N 57°59' E 009°17'9 2.8
2017-Mar-26 11:21N 58°03' E 009°32'16 8.9
2017-Mar-26 09:32N 58°11' E 009°59'6 3.8
2017-Mar-26 08:03N 58°14' E 010°08'1 2.0
2017-Mar-26 07:33N 58°13' E 010°06'22 1.9
2017-Mar-25 19:33N 58°01' E 009°32'9 8.6
2017-Mar-25 18:33N 58°05' E 009°46'9 8.9
2017-Mar-25 17:33N 58°10' E 009°60'4 4.2
2017-Mar-25 16:33N 58°13' E 010°06'2 1.5
2017-Mar-25 15:33N 58°12' E 010°03'2 2.1
2017-Mar-25 14:33N 58°11' E 009°60'5 2.1
2017-Mar-25 12:15N 58°08' E 009°52'12 2.1
2017-Mar-25 06:33N 58°02' E 009°33'6 1.5
2017-Mar-25 02:16N 57°56' E 009°37'5 7.4
2017-Mar-25 01:32N 57°54' E 009°47'7 7.3
2017-Mar-25 00:32N 57°52' E 010°00'8 7.2
2017-Mar-24 23:23N 57°50' E 010°15'6 7.8
2017-Mar-24 22:33N 57°48' E 010°27'8 7.7
2017-Mar-24 21:32N 57°46' E 010°41'4 3.7
2017-Mar-24 20:25N 57°43' E 010°35'0 0.0
2017-Mar-24 18:30N 57°43' E 010°35'0 0.3
2017-Mar-24 17:33N 57°43' E 010°35'0 0.0
2017-Mar-24 16:33N 57°43' E 010°35'0 0.0
2017-Mar-24 15:33N 57°43' E 010°35'0 0.0
2017-Mar-24 14:33N 57°43' E 010°35'0 0.0
2017-Mar-24 13:33N 57°43' E 010°35'0 0.0
2017-Mar-24 12:32N 57°43' E 010°35'0 0.0
2017-Mar-24 11:33N 57°43' E 010°35'0 0.0
2017-Mar-24 10:33N 57°43' E 010°35'0 0.0
2017-Mar-24 09:33N 57°43' E 010°35'0 0.0
2017-Mar-24 08:33N 57°43' E 010°35'0 0.0
2017-Mar-24 07:33N 57°43' E 010°35'0 0.0
2017-Mar-24 06:33N 57°43' E 010°35'0 0.0
2017-Mar-24 05:33N 57°43' E 010°35'0 0.0
2017-Mar-24 04:32N 57°43' E 010°35'0 0.0
2017-Mar-24 03:33N 57°43' E 010°35'0 0.0
2017-Mar-24 02:32N 57°43' E 010°35'0 0.0
2017-Mar-24 01:33N 57°43' E 010°35'0 0.0
2017-Mar-24 00:33N 57°43' E 010°35'0 0.0
2017-Mar-23 23:31N 57°43' E 010°35'0 0.0
2017-Mar-23 22:33N 57°43' E 010°35'0 0.0
2017-Mar-23 21:33N 57°43' E 010°35'0 0.0
2017-Mar-23 20:33N 57°43' E 010°35'0 0.0
2017-Mar-23 19:33N 57°43' E 010°35'0 0.0
2017-Mar-23 18:33N 57°43' E 010°35'0 0.0
2017-Mar-23 17:33N 57°43' E 010°35'0 0.0
2017-Mar-23 16:33N 57°43' E 010°35'0 0.0
2017-Mar-23 15:33N 57°43' E 010°35'0 0.0
2017-Mar-23 14:33N 57°43' E 010°35'0 0.0
2017-Mar-23 13:33N 57°43' E 010°35'0 0.0
2017-Mar-23 12:33N 57°43' E 010°35'0 0.0
2017-Mar-23 11:33N 57°43' E 010°35'0 0.0
2017-Mar-23 10:33N 57°43' E 010°35'0 0.0
2017-Mar-23 09:33N 57°43' E 010°35'0 0.0
2017-Mar-23 08:33N 57°43' E 010°35'0 0.0
2017-Mar-23 07:33N 57°43' E 010°35'0 0.0
2017-Mar-23 06:33N 57°43' E 010°35'0 0.0
2017-Mar-23 05:33N 57°43' E 010°35'0 0.0
2017-Mar-23 04:33N 57°43' E 010°35'0 0.0
2017-Mar-23 03:33N 57°43' E 010°35'0 0.0
2017-Mar-23 02:33N 57°43' E 010°35'0 0.0
2017-Mar-23 01:33N 57°43' E 010°35'0 0.0
2017-Mar-23 00:33N 57°43' E 010°35'0 0.0
2017-Mar-22 23:33N 57°43' E 010°35'0 0.0
2017-Mar-22 22:33N 57°43' E 010°35'0 0.0
2017-Mar-22 21:32N 57°43' E 010°35'0 0.0
2017-Mar-22 20:33N 57°43' E 010°35'0 0.0
2017-Mar-22 19:33N 57°43' E 010°35'0 0.0
2017-Mar-22 18:33N 57°43' E 010°35'0 0.0
2017-Mar-22 17:33N 57°43' E 010°35'0 0.0
2017-Mar-22 16:33N 57°43' E 010°35'0 0.0
2017-Mar-22 15:33N 57°43' E 010°35'0 0.0
2017-Mar-22 14:33N 57°43' E 010°35'0 0.0
2017-Mar-22 13:33N 57°43' E 010°35'0 0.0
2017-Mar-22 12:33N 57°43' E 010°35'0 0.0
2017-Mar-21 12:33N 57°43' E 010°35'0 0.0
2017-Mar-21 11:33N 57°43' E 010°35'0 0.0
2017-Mar-21 10:33N 57°43' E 010°35'0 0.0
2017-Mar-21 09:33N 57°43' E 010°35'0 0.0
2017-Mar-21 08:33N 57°43' E 010°35'0 0.0
2017-Mar-21 07:33N 57°43' E 010°35'0 0.0
2017-Mar-21 06:33N 57°43' E 010°35'0 0.0
2017-Mar-21 05:33N 57°43' E 010°35'0 0.0
2017-Mar-21 04:33N 57°43' E 010°35'0 0.0
2017-Mar-21 03:33N 57°43' E 010°35'0 0.0
2017-Mar-21 02:33N 57°43' E 010°35'0 0.0
2017-Mar-21 01:33N 57°43' E 010°35'0 0.0
2017-Mar-21 00:33N 57°43' E 010°35'0 0.0
2017-Mar-20 23:33N 57°43' E 010°35'0 0.0
2017-Mar-20 22:33N 57°43' E 010°35'0 0.0
2017-Mar-20 21:33N 57°43' E 010°35'0 0.0
2017-Mar-20 20:33N 57°43' E 010°35'0 0.0
2017-Mar-20 19:33N 57°43' E 010°35'0 0.0
2017-Mar-20 18:33N 57°43' E 010°35'0 0.0
2017-Mar-20 17:33N 57°43' E 010°35'0 0.0
2017-Mar-20 16:33N 57°43' E 010°35'0 0.0
2017-Mar-20 15:33N 57°43' E 010°35'0 0.0
2017-Mar-20 14:33N 57°43' E 010°35'0 0.0
2017-Mar-20 13:33N 57°43' E 010°35'0 0.0
2017-Mar-20 12:33N 57°43' E 010°35'0 0.0
2017-Mar-20 11:33N 57°43' E 010°35'0 0.0
2017-Mar-20 10:33N 57°43' E 010°35'0 0.0
2017-Mar-20 09:33N 57°43' E 010°35'0 0.0
2017-Mar-20 08:33N 57°43' E 010°35'0 0.0
2017-Mar-20 07:33N 57°43' E 010°35'0 0.0
2017-Mar-20 06:33N 57°43' E 010°35'0 0.0
2017-Mar-20 05:33N 57°43' E 010°35'0 0.0
2017-Mar-20 04:33N 57°43' E 010°35'0 0.0
2017-Mar-20 03:33N 57°43' E 010°35'0 0.0
2017-Mar-20 02:33N 57°43' E 010°35'0 0.0
2017-Mar-20 01:33N 57°43' E 010°35'0 0.0
2017-Mar-20 00:33N 57°43' E 010°35'0 0.0
2017-Mar-19 23:33N 57°43' E 010°35'0 0.0
2017-Mar-19 22:33N 57°43' E 010°35'0 0.0
2017-Mar-19 21:33N 57°43' E 010°35'0 0.0
2017-Mar-19 20:33N 57°43' E 010°35'0 0.0
2017-Mar-19 19:33N 57°43' E 010°35'0 0.0
2017-Mar-19 18:33N 57°43' E 010°35'0 0.0
2017-Mar-19 17:33N 57°43' E 010°35'0 0.0
2017-Mar-19 16:33N 57°43' E 010°35'0 0.0
2017-Mar-19 15:33N 57°43' E 010°35'0 0.0
2017-Mar-19 14:33N 57°43' E 010°35'0 0.0
2017-Mar-19 13:33N 57°43' E 010°35'0 0.0
2017-Mar-19 12:33N 57°43' E 010°35'0 0.0
2017-Mar-19 11:33N 57°43' E 010°35'0 0.4
2017-Mar-19 10:33N 57°43' E 010°36'0 0.0
2017-Mar-19 09:33N 57°43' E 010°36'0 0.0
2017-Mar-19 08:17N 57°43' E 010°36'0 0.1
2017-Mar-19 05:33N 57°43' E 010°36'5 4.6
2017-Mar-19 04:32N 57°48' E 010°38'29 8.7
2017-Mar-19 01:14N 58°08' E 010°01'6 8.9
2017-Mar-19 00:32N 58°12' E 010°11'3 3.0
2017-Mar-18 23:26N 58°15' E 010°15'2 2.1
2017-Mar-18 22:21N 58°14' E 010°11'2 2.1
2017-Mar-18 21:30N 58°13' E 010°07'  
Track history (hours):
 
Tides and Currents Weather Stations Pressure Air Temp Water Temp Dewpoint Dewpoint Depression Visibility Wind Speed Wind Dir Waves Ship Positions

S 386 Casilo

Last reported at 2017-Mar-28 20:21 UTC. Time now 2017-Mar-29 21:17 UTC.
Position N 57°43' E 008°24'.

Length 24 m.

Type: Fishing. MMSI: 219948000.

Date/timePositionNaut miles runAvg speedWind from/ knotsBaromVisibWave heightAir tempDewpointWater temp
2017-Mar-28 20:21N 57°43' E 008°24'2 2.7
2017-Mar-28 19:33N 57°44' E 008°27'9 8.6
2017-Mar-28 18:29N 57°47' E 008°43'6 5.9
2017-Mar-28 17:25N 57°51' E 008°53'12 2.1
2017-Mar-28 11:27N 57°45' E 008°32'3 2.2
2017-Mar-28 10:03N 57°44' E 008°27'27 1.3
2017-Mar-27 14:07N 57°34' E 009°14'5 8.4
2017-Mar-27 13:30N 57°35' E 009°24'8 8.1
2017-Mar-27 12:31N 57°35' E 009°38'8 7.8
2017-Mar-27 11:33N 57°36' E 009°52'8 2.6
2017-Mar-27 08:33N 57°43' E 009°59'25 2.4
2017-Mar-26 22:05N 58°07' E 009°42'1 2.1
2017-Mar-26 21:33N 58°06' E 009°40'2 2.1
2017-Mar-26 20:28N 58°05' E 009°37'2 2.1
2017-Mar-26 19:32N 58°04' E 009°33'6 2.1
2017-Mar-26 16:32N 58°01' E 009°23'2 2.1
2017-Mar-26 15:33N 57°60' E 009°20'2 1.7
2017-Mar-26 14:33N 57°59' E 009°17'9 2.8
2017-Mar-26 11:21N 58°03' E 009°32'16 8.9
2017-Mar-26 09:32N 58°11' E 009°59'6 3.8
2017-Mar-26 08:03N 58°14' E 010°08'1 2.0
2017-Mar-26 07:33N 58°13' E 010°06'22 1.9
2017-Mar-25 19:33N 58°01' E 009°32'9 8.6
2017-Mar-25 18:33N 58°05' E 009°46'9 8.9
2017-Mar-25 17:33N 58°10' E 009°60'4 4.2
2017-Mar-25 16:33N 58°13' E 010°06'2 1.5
2017-Mar-25 15:33N 58°12' E 010°03'2 2.1
2017-Mar-25 14:33N 58°11' E 009°60'5 2.1
2017-Mar-25 12:15N 58°08' E 009°52'12 2.1
2017-Mar-25 06:33N 58°02' E 009°33'6 1.5
2017-Mar-25 02:16N 57°56' E 009°37'5 7.4
2017-Mar-25 01:32N 57°54' E 009°47'7 7.3
2017-Mar-25 00:32N 57°52' E 010°00'8 7.2
2017-Mar-24 23:23N 57°50' E 010°15'6 7.8
2017-Mar-24 22:33N 57°48' E 010°27'8 7.7
2017-Mar-24 21:32N 57°46' E 010°41'4 3.7
2017-Mar-24 20:25N 57°43' E 010°35'0 0.0
2017-Mar-24 18:30N 57°43' E 010°35'0 0.3
2017-Mar-24 17:33N 57°43' E 010°35'0 0.0
2017-Mar-24 16:33N 57°43' E 010°35'0 0.0
2017-Mar-24 15:33N 57°43' E 010°35'0 0.0
2017-Mar-24 14:33N 57°43' E 010°35'0 0.0
2017-Mar-24 13:33N 57°43' E 010°35'0 0.0
2017-Mar-24 12:32N 57°43' E 010°35'0 0.0
2017-Mar-24 11:33N 57°43' E 010°35'0 0.0
2017-Mar-24 10:33N 57°43' E 010°35'0 0.0
2017-Mar-24 09:33N 57°43' E 010°35'0 0.0
2017-Mar-24 08:33N 57°43' E 010°35'0 0.0
2017-Mar-24 07:33N 57°43' E 010°35'0 0.0
2017-Mar-24 06:33N 57°43' E 010°35'0 0.0
2017-Mar-24 05:33N 57°43' E 010°35'0 0.0
2017-Mar-24 04:32N 57°43' E 010°35'0 0.0
2017-Mar-24 03:33N 57°43' E 010°35'0 0.0
2017-Mar-24 02:32N 57°43' E 010°35'0 0.0
2017-Mar-24 01:33N 57°43' E 010°35'0 0.0
2017-Mar-24 00:33N 57°43' E 010°35'0 0.0
2017-Mar-23 23:31N 57°43' E 010°35'0 0.0
2017-Mar-23 22:33N 57°43' E 010°35'0 0.0
2017-Mar-23 21:33N 57°43' E 010°35'0 0.0
2017-Mar-23 20:33N 57°43' E 010°35'0 0.0
2017-Mar-23 19:33N 57°43' E 010°35'0 0.0
2017-Mar-23 18:33N 57°43' E 010°35'0 0.0
2017-Mar-23 17:33N 57°43' E 010°35'0 0.0
2017-Mar-23 16:33N 57°43' E 010°35'0 0.0
2017-Mar-23 15:33N 57°43' E 010°35'0 0.0
2017-Mar-23 14:33N 57°43' E 010°35'0 0.0
2017-Mar-23 13:33N 57°43' E 010°35'0 0.0
2017-Mar-23 12:33N 57°43' E 010°35'0 0.0
2017-Mar-23 11:33N 57°43' E 010°35'0 0.0
2017-Mar-23 10:33N 57°43' E 010°35'0 0.0
2017-Mar-23 09:33N 57°43' E 010°35'0 0.0
2017-Mar-23 08:33N 57°43' E 010°35'0 0.0
2017-Mar-23 07:33N 57°43' E 010°35'0 0.0
2017-Mar-23 06:33N 57°43' E 010°35'0 0.0
2017-Mar-23 05:33N 57°43' E 010°35'0 0.0
2017-Mar-23 04:33N 57°43' E 010°35'0 0.0
2017-Mar-23 03:33N 57°43' E 010°35'0 0.0
2017-Mar-23 02:33N 57°43' E 010°35'0 0.0
2017-Mar-23 01:33N 57°43' E 010°35'0 0.0
2017-Mar-23 00:33N 57°43' E 010°35'0 0.0
2017-Mar-22 23:33N 57°43' E 010°35'0 0.0
2017-Mar-22 22:33N 57°43' E 010°35'0 0.0
2017-Mar-22 21:32N 57°43' E 010°35'0 0.0
2017-Mar-22 20:33N 57°43' E 010°35'0 0.0
2017-Mar-22 19:33N 57°43' E 010°35'0 0.0
2017-Mar-22 18:33N 57°43' E 010°35'0 0.0
2017-Mar-22 17:33N 57°43' E 010°35'0 0.0
2017-Mar-22 16:33N 57°43' E 010°35'0 0.0
2017-Mar-22 15:33N 57°43' E 010°35'0 0.0
2017-Mar-22 14:33N 57°43' E 010°35'0 0.0
2017-Mar-22 13:33N 57°43' E 010°35'0 0.0
2017-Mar-22 12:33N 57°43' E 010°35'0 0.0
2017-Mar-21 12:33N 57°43' E 010°35'0 0.0
2017-Mar-21 11:33N 57°43' E 010°35'0 0.0
2017-Mar-21 10:33N 57°43' E 010°35'0 0.0
2017-Mar-21 09:33N 57°43' E 010°35'0 0.0
2017-Mar-21 08:33N 57°43' E 010°35'0 0.0
2017-Mar-21 07:33N 57°43' E 010°35'0 0.0
2017-Mar-21 06:33N 57°43' E 010°35'0 0.0
2017-Mar-21 05:33N 57°43' E 010°35'0 0.0
2017-Mar-21 04:33N 57°43' E 010°35'0 0.0
2017-Mar-21 03:33N 57°43' E 010°35'0 0.0
2017-Mar-21 02:33N 57°43' E 010°35'0 0.0
2017-Mar-21 01:33N 57°43' E 010°35'0 0.0
2017-Mar-21 00:33N 57°43' E 010°35'0 0.0
2017-Mar-20 23:33N 57°43' E 010°35'0 0.0
2017-Mar-20 22:33N 57°43' E 010°35'0 0.0
2017-Mar-20 21:33N 57°43' E 010°35'0 0.0
2017-Mar-20 20:33N 57°43' E 010°35'0 0.0
2017-Mar-20 19:33N 57°43' E 010°35'0 0.0
2017-Mar-20 18:33N 57°43' E 010°35'0 0.0
2017-Mar-20 17:33N 57°43' E 010°35'0 0.0
2017-Mar-20 16:33N 57°43' E 010°35'0 0.0
2017-Mar-20 15:33N 57°43' E 010°35'0 0.0
2017-Mar-20 14:33N 57°43' E 010°35'0 0.0
2017-Mar-20 13:33N 57°43' E 010°35'0 0.0
2017-Mar-20 12:33N 57°43' E 010°35'0 0.0
2017-Mar-20 11:33N 57°43' E 010°35'0 0.0
2017-Mar-20 10:33N 57°43' E 010°35'0 0.0
2017-Mar-20 09:33N 57°43' E 010°35'0 0.0
2017-Mar-20 08:33N 57°43' E 010°35'0 0.0
2017-Mar-20 07:33N 57°43' E 010°35'0 0.0
2017-Mar-20 06:33N 57°43' E 010°35'0 0.0
2017-Mar-20 05:33N 57°43' E 010°35'0 0.0
2017-Mar-20 04:33N 57°43' E 010°35'0 0.0
2017-Mar-20 03:33N 57°43' E 010°35'0 0.0
2017-Mar-20 02:33N 57°43' E 010°35'0 0.0
2017-Mar-20 01:33N 57°43' E 010°35'0 0.0
2017-Mar-20 00:33N 57°43' E 010°35'0 0.0
2017-Mar-19 23:33N 57°43' E 010°35'0 0.0
2017-Mar-19 22:33N 57°43' E 010°35'0 0.0
2017-Mar-19 21:33N 57°43' E 010°35'0 0.0
2017-Mar-19 20:33N 57°43' E 010°35'0 0.0
2017-Mar-19 19:33N 57°43' E 010°35'0 0.0
2017-Mar-19 18:33N 57°43' E 010°35'0 0.0
2017-Mar-19 17:33N 57°43' E 010°35'0 0.0
2017-Mar-19 16:33N 57°43' E 010°35'0 0.0
2017-Mar-19 15:33N 57°43' E 010°35'0 0.0
2017-Mar-19 14:33N 57°43' E 010°35'0 0.0
2017-Mar-19 13:33N 57°43' E 010°35'0 0.0
2017-Mar-19 12:33N 57°43' E 010°35'0 0.0
2017-Mar-19 11:33N 57°43' E 010°35'0 0.4
2017-Mar-19 10:33N 57°43' E 010°36'0 0.0
2017-Mar-19 09:33N 57°43' E 010°36'0 0.0
2017-Mar-19 08:17N 57°43' E 010°36'0 0.1
2017-Mar-19 05:33N 57°43' E 010°36'5 4.6
2017-Mar-19 04:32N 57°48' E 010°38'29 8.7
2017-Mar-19 01:14N 58°08' E 010°01'6 8.9
2017-Mar-19 00:32N 58°12' E 010°11'3 3.0
2017-Mar-18 23:26N 58°15' E 010°15'2 2.1
2017-Mar-18 22:21N 58°14' E 010°11'2 2.1
2017-Mar-18 21:30N 58°13' E 010°07'  

Dump ship's entire track history